Washington, DC (20554)

3:45 AM EDT on August 30, 2016 (GMT -0400)
Adams Morgan | | Change Station

Elev 171 ft 38.92 °N, 77.04 °W | Updated 55 seconds ago

Scattered Clouds
Scattered Clouds
76.1 °F
Feels Like 78 °F
N
0.0
Wind Variable Wind from NW
Gusts 0.0 mph

Today
High -- | Low -- °F
--% Chance of Precip.
Yesterday
High -- | Low -- °F
Precip. -- in
Pressure 30.12 in
Visibility 10.0 miles
Clouds Few 8000 ft
Scattered Clouds 25000 ft
Heat Index 78 °F
Dew Point 65 °F
Humidity 69%
Rainfall 0.00 in
Snow Depth Not available.
6:35 AM 7:40 PM
Waning Crescent, 5% visible
METAR KDCA 300652Z 05008KT 10SM FEW080 SCT250 26/18 A3012 RMK AO2 SLP199 T02610178
Pressure 30.12 in
Visibility 10.0 miles
Clouds Few 8000 ft
Scattered Clouds 25000 ft
Heat Index 78 °F
Dew Point 65 °F
Humidity 69%
Rainfall 0.00 in
Snow Depth Not available.
6:35 AM 7:40 PM
Waning Crescent, 5% visible
METAR KDCA 300652Z 05008KT 10SM FEW080 SCT250 26/18 A3012 RMK AO2 SLP199 T02610178

10-Day Weather Forecast

Almanac

Astronomy

Aug. 30, 2016 Rise Set
Actual Time
Civil Twilight
Nautical Twilight
Astronomical Twilight
Moon
Length of Visible Light
Length of Day
Tomorrow will be .
, % of the Moon is Illuminated

Today's Extremes

State Highs State Lows

Community

WunderPhotos

Upload Photos

1,935,795 photos uploaded!

WunderBlog® & News

Nearby

Air Quality

  Air Quality AQ Index Pollutant
Not available.

Snow Depth

Station Depth Elevation

Earthquake Activity

City Distance Mag. Time & Date
Minimum magnitude displayed is 2.5.

Coastal Water Temperatures

Place Temperature

Stations

Nearby Weather Stations

Station Location Temp. Windchill Dew Point Humidity Wind Precip. Elev Updated Type
                   

Watches & Warnings

There are currently no watches in effect.